createdAt,value
2022-09-09T00:02:01.855Z,68.92
2022-09-09T00:04:35.373Z,69.18
2022-09-09T00:07:13.127Z,69.17
2022-09-09T00:09:51.139Z,69.52
2022-09-09T00:12:33.690Z,69.60
2022-09-09T00:15:09.863Z,69.70
2022-09-09T00:17:45.425Z,70.00
2022-09-09T00:20:24.780Z,70.25
2022-09-09T00:23:02.676Z,70.31
2022-09-09T00:25:39.737Z,70.52
2022-09-09T00:28:20.090Z,70.60
2022-09-09T00:30:50.792Z,70.78
2022-09-09T00:33:25.698Z,70.63
2022-09-09T00:35:59.920Z,70.67
2022-09-09T00:38:36.133Z,70.53
2022-09-09T00:41:11.340Z,70.47
2022-09-09T00:43:43.866Z,70.55
2022-09-09T00:46:27.549Z,70.74
2022-09-09T00:49:06.992Z,70.67
2022-09-09T00:51:51.393Z,70.96
2022-09-09T00:54:36.096Z,70.68
2022-09-09T00:57:25.161Z,70.88
2022-09-09T01:00:00.455Z,70.65
2022-09-09T01:02:34.154Z,70.64
2022-09-09T01:05:12.528Z,70.60
2022-09-09T01:07:47.154Z,70.62
2022-09-09T01:10:27.032Z,70.84
2022-09-09T01:13:02.947Z,70.59
2022-09-09T01:15:36.825Z,70.52
2022-09-09T01:18:08.032Z,70.58
2022-09-09T01:20:50.545Z,70.85
2022-09-09T01:23:40.895Z,70.85
2022-09-09T01:26:32.119Z,70.84
2022-09-09T01:29:10.082Z,71.03
2022-09-09T01:31:53.838Z,71.05
2022-09-09T01:34:27.872Z,71.17
2022-09-09T01:37:05.604Z,70.87
2022-09-09T01:39:38.346Z,71.22
2022-09-09T01:42:15.962Z,70.82
2022-09-09T01:44:46.962Z,70.54
2022-09-09T01:47:18.791Z,70.72
2022-09-09T01:50:05.293Z,70.70
2022-09-09T01:52:39.191Z,70.83
2022-09-09T01:55:14.021Z,70.64
2022-09-09T01:57:53.776Z,70.69
2022-09-09T02:00:24.660Z,70.59
2022-09-09T02:03:08.387Z,70.54
2022-09-09T02:05:54.651Z,70.52
2022-09-09T02:08:39.347Z,70.81
2022-09-09T02:11:16.453Z,70.86
2022-09-09T02:13:53.498Z,71.06
2022-09-09T02:16:28.810Z,71.01
2022-09-09T02:19:03.302Z,71.15
2022-09-09T02:21:43.225Z,70.88
2022-09-09T02:24:16.381Z,70.86
2022-09-09T02:26:56.419Z,71.07
2022-09-09T02:29:31.698Z,70.89
2022-09-09T02:32:07.257Z,70.96
2022-09-09T02:34:42.180Z,71.18
2022-09-09T02:37:17.377Z,70.91
2022-09-09T02:39:50.006Z,70.99
2022-09-09T02:42:23.460Z,71.12
2022-09-09T02:44:54.780Z,71.14
2022-09-09T02:47:32.579Z,71.23
2022-09-09T02:50:17.897Z,71.44
2022-09-09T02:53:00.153Z,71.68
2022-09-09T02:55:43.278Z,71.57
2022-09-09T02:58:17.906Z,71.53
2022-09-09T03:00:53.505Z,71.59
2022-09-09T03:03:24.749Z,71.40
2022-09-09T03:05:55.664Z,71.73
2022-09-09T03:08:28.604Z,71.58
2022-09-09T03:11:02.676Z,71.63
2022-09-09T03:13:35.885Z,71.76
2022-09-09T03:16:07.354Z,71.58
2022-09-09T03:18:43.658Z,71.78
2022-09-09T03:21:13.220Z,71.57
2022-09-09T03:23:46.631Z,71.59
2022-09-09T03:26:17.394Z,71.72
2022-09-09T03:28:50.989Z,71.39
2022-09-09T03:31:22.750Z,71.68
2022-09-09T03:33:54.234Z,71.83
2022-09-09T03:36:25.560Z,71.85
2022-09-09T03:38:56.726Z,71.62
2022-09-09T03:41:28.794Z,71.78
2022-09-09T03:43:59.579Z,71.82
2022-09-09T03:46:30.792Z,71.48
2022-09-09T03:49:02.603Z,71.43
2022-09-09T03:51:37.821Z,71.43
2022-09-09T03:54:11.193Z,72.12
2022-09-09T03:56:42.675Z,71.81
2022-09-09T03:59:15.306Z,71.63
2022-09-09T04:01:46.679Z,71.45
2022-09-09T04:04:17.348Z,71.25
2022-09-09T04:06:49.294Z,71.19
2022-09-09T04:09:19.995Z,71.37
2022-09-09T04:11:52.672Z,71.57
2022-09-09T04:14:24.017Z,71.54
2022-09-09T04:16:55.000Z,71.63
2022-09-09T04:19:25.869Z,71.50
2022-09-09T04:21:56.535Z,71.40
2022-09-09T04:24:30.198Z,71.46
2022-09-09T04:27:01.778Z,72.01
2022-09-09T04:29:32.748Z,71.81
2022-09-09T04:32:03.758Z,71.49
2022-09-09T04:34:34.902Z,71.84
2022-09-09T04:37:06.025Z,71.85
2022-09-09T04:39:36.692Z,72.09
2022-09-09T04:42:08.161Z,72.03
2022-09-09T04:44:38.847Z,71.99
2022-09-09T04:47:10.570Z,72.09
2022-09-09T04:49:42.077Z,71.91
2022-09-09T04:52:13.030Z,72.08
2022-09-09T04:54:43.776Z,71.84
2022-09-09T04:57:18.579Z,71.74
2022-09-09T04:59:50.187Z,71.71
2022-09-09T05:02:20.868Z,71.57
2022-09-09T05:04:51.789Z,71.52
2022-09-09T05:07:22.400Z,71.25
2022-09-09T05:09:53.066Z,71.05
2022-09-09T05:12:29.006Z,71.42
2022-09-09T05:15:00.196Z,71.60
2022-09-09T05:17:30.890Z,71.19
2022-09-09T05:20:01.485Z,71.08
2022-09-09T05:22:32.563Z,70.70
2022-09-09T05:25:03.313Z,70.54
2022-09-09T05:27:35.570Z,70.54
2022-09-09T05:30:08.110Z,70.41
2022-09-09T05:32:38.909Z,70.13
2022-09-09T05:35:11.013Z,70.01
2022-09-09T05:37:42.849Z,69.79
2022-09-09T05:40:15.544Z,69.46
2022-09-09T05:42:46.321Z,69.14
2022-09-09T05:45:16.957Z,68.62
2022-09-09T05:47:53.898Z,68.47
2022-09-09T05:50:27.621Z,68.15
2022-09-09T05:53:00.455Z,68.06
2022-09-09T05:55:32.225Z,67.88
2022-09-09T05:58:03.775Z,67.52
2022-09-09T06:00:34.418Z,67.54
2022-09-09T06:03:05.241Z,67.71
2022-09-09T06:05:36.482Z,67.75
2022-09-09T06:08:08.337Z,67.47
2022-09-09T06:10:38.965Z,67.34
2022-09-09T06:13:11.009Z,67.32
2022-09-09T06:15:51.112Z,67.26
2022-09-09T06:18:22.781Z,67.08
2022-09-09T06:21:02.601Z,66.85
2022-09-09T06:23:34.008Z,66.65
2022-09-09T06:26:11.810Z,66.39
2022-09-09T06:28:43.778Z,66.38
2022-09-09T06:31:18.341Z,66.28
2022-09-09T06:33:50.502Z,66.43
2022-09-09T06:36:24.003Z,66.28
2022-09-09T06:38:54.985Z,65.96
2022-09-09T06:41:27.796Z,65.74
2022-09-09T06:43:59.239Z,65.53
2022-09-09T06:46:37.063Z,65.36
2022-09-09T06:49:07.827Z,65.35
2022-09-09T06:51:43.659Z,65.55
2022-09-09T06:54:16.026Z,65.30
2022-09-09T06:56:48.338Z,65.33
2022-09-09T06:59:25.398Z,65.13
2022-09-09T07:01:58.064Z,64.43
2022-09-09T07:04:28.925Z,63.94
2022-09-09T07:06:59.911Z,63.59
2022-09-09T07:09:32.802Z,63.27
2022-09-09T07:12:04.198Z,62.82
2022-09-09T07:14:37.146Z,63.01
2022-09-09T07:17:08.003Z,62.98
2022-09-09T07:19:41.137Z,62.72
2022-09-09T07:22:11.715Z,62.68
2022-09-09T07:24:42.721Z,62.36
2022-09-09T07:27:13.341Z,61.59
2022-09-09T07:29:46.347Z,61.27
2022-09-09T07:32:17.627Z,60.69
2022-09-09T07:34:48.310Z,60.38
2022-09-09T07:37:19.291Z,59.81
2022-09-09T07:39:50.888Z,59.70
2022-09-09T07:42:21.866Z,58.98
2022-09-09T07:44:55.887Z,58.26
2022-09-09T07:47:26.636Z,57.70
2022-09-09T07:49:57.794Z,56.78
2022-09-09T07:52:31.485Z,56.14
2022-09-09T07:55:05.514Z,55.87
2022-09-09T07:57:37.247Z,55.87
2022-09-09T08:00:11.918Z,56.35
2022-09-09T08:02:47.444Z,55.61
2022-09-09T08:05:19.146Z,55.88
2022-09-09T08:07:49.932Z,55.41
2022-09-09T08:10:20.851Z,55.42
2022-09-09T08:13:14.967Z,55.28
2022-09-09T08:15:45.502Z,55.89
2022-09-09T08:18:16.621Z,56.33
2022-09-09T08:20:47.720Z,56.49
2022-09-09T08:23:19.228Z,56.63
2022-09-09T08:25:51.124Z,57.22
2022-09-09T08:28:22.431Z,57.74
2022-09-09T08:30:54.427Z,57.66
2022-09-09T08:33:26.990Z,58.26
2022-09-09T08:35:56.095Z,58.37
2022-09-09T08:38:28.126Z,58.30
2022-09-09T08:41:09.362Z,58.14
2022-09-09T08:43:42.049Z,58.23
2022-09-09T08:46:19.431Z,58.31
2022-09-09T08:48:59.156Z,58.81
2022-09-09T08:51:34.402Z,59.27
2022-09-09T08:54:07.063Z,59.78
2022-09-09T08:56:38.070Z,60.01
2022-09-09T08:59:12.126Z,59.05
2022-09-09T09:01:52.216Z,58.28
2022-09-09T09:04:45.487Z,57.82
2022-09-09T09:07:32.093Z,57.83
2022-09-09T09:10:37.596Z,57.58
2022-09-09T09:13:04.400Z,57.62
2022-09-09T09:15:41.481Z,57.95
2022-09-09T09:18:16.858Z,58.44
2022-09-09T09:20:58.118Z,58.47
2022-09-09T09:23:36.362Z,58.70
2022-09-09T09:26:13.036Z,59.01
2022-09-09T09:28:44.300Z,59.41
2022-09-09T09:31:20.348Z,59.42
2022-09-09T09:33:54.131Z,60.22
2022-09-09T09:36:36.200Z,61.15
2022-09-09T09:42:06.406Z,62.60
2022-09-09T09:44:38.324Z,63.79
2022-09-09T09:47:16.429Z,63.79
2022-09-09T09:50:07.728Z,63.25
2022-09-09T09:52:43.647Z,63.90
2022-09-09T09:55:17.941Z,64.09
2022-09-09T09:57:49.109Z,63.55
2022-09-09T10:00:22.592Z,62.83
2022-09-09T10:03:03.102Z,61.83
2022-09-09T10:05:47.074Z,60.40
2022-09-09T10:08:20.106Z,59.53
2022-09-09T10:11:00.361Z,59.25
2022-09-09T10:13:40.160Z,58.70
2022-09-09T10:16:27.512Z,57.71
2022-09-09T10:19:03.234Z,57.17
2022-09-09T10:21:49.209Z,57.17
2022-09-09T10:24:41.078Z,56.99
2022-09-09T10:27:22.240Z,55.93
2022-09-09T10:30:12.199Z,55.62
2022-09-09T10:32:47.826Z,56.28
2022-09-09T10:35:30.001Z,56.06
2022-09-09T10:38:15.916Z,55.34
2022-09-09T10:41:01.315Z,55.90
2022-09-09T10:44:00.273Z,55.38
2022-09-09T10:46:40.862Z,54.17
2022-09-09T10:49:25.610Z,54.40
2022-09-09T10:52:04.112Z,54.55
2022-09-09T10:54:47.780Z,53.96
2022-09-09T10:57:33.010Z,52.35
2022-09-09T11:00:09.517Z,52.49
2022-09-09T11:02:43.102Z,52.82
2022-09-09T11:05:20.617Z,51.73
2022-09-09T11:07:57.744Z,51.08
2022-09-09T11:10:43.432Z,51.72
2022-09-09T11:13:22.069Z,52.21
2022-09-09T11:16:02.140Z,52.82
2022-09-09T11:18:33.943Z,53.21
2022-09-09T11:21:09.633Z,53.27
2022-09-09T11:23:45.248Z,53.63
2022-09-09T11:26:23.025Z,54.19
2022-09-09T11:29:11.057Z,54.49
2022-09-09T11:31:57.071Z,55.34
2022-09-09T11:34:43.055Z,56.04
2022-09-09T11:37:27.190Z,56.75
2022-09-09T11:40:24.208Z,57.04
2022-09-09T11:43:06.889Z,57.83
2022-09-09T11:45:38.959Z,56.87
2022-09-09T11:48:29.754Z,56.79
2022-09-09T11:51:10.035Z,57.07
2022-09-09T11:53:54.431Z,56.78
2022-09-09T11:56:31.778Z,56.49
2022-09-09T11:59:06.422Z,56.35
2022-09-09T12:01:43.789Z,56.72
2022-09-09T12:04:33.195Z,56.20
2022-09-09T12:07:06.799Z,56.20
2022-09-09T12:09:53.812Z,56.06
2022-09-09T12:12:44.023Z,55.56
2022-09-09T12:15:29.807Z,55.00
2022-09-09T12:18:03.798Z,54.21
2022-09-09T12:20:40.084Z,54.41
2022-09-09T12:23:33.176Z,54.37
2022-09-09T12:26:19.036Z,54.34
2022-09-09T12:28:59.244Z,54.44
2022-09-09T12:31:38.127Z,54.66
2022-09-09T12:34:15.443Z,55.08
2022-09-09T12:36:53.872Z,55.56
2022-09-09T12:39:34.919Z,55.88
2022-09-09T12:42:06.111Z,56.27
2022-09-09T12:44:36.675Z,56.35
2022-09-09T12:47:07.812Z,56.64
2022-09-09T12:49:42.062Z,56.80
2022-09-09T12:52:19.146Z,56.65
2022-09-09T12:54:52.481Z,56.51
2022-09-09T12:57:25.840Z,56.18
2022-09-09T13:00:10.958Z,56.15
2022-09-09T13:02:51.271Z,56.27
2022-09-09T13:05:26.062Z,55.80
2022-09-09T13:08:05.328Z,55.13
2022-09-09T13:10:57.415Z,54.24
2022-09-09T13:13:36.888Z,53.62
2022-09-09T13:16:18.687Z,53.45
2022-09-09T13:18:49.909Z,53.55
2022-09-09T13:21:20.932Z,53.37
2022-09-09T13:23:54.685Z,53.03
2022-09-09T13:26:27.676Z,53.16
2022-09-09T13:29:09.930Z,53.28
2022-09-09T13:31:41.229Z,53.07
2022-09-09T13:34:17.071Z,53.51
2022-09-09T13:36:51.229Z,53.70
2022-09-09T13:39:21.868Z,53.69
2022-09-09T13:41:54.125Z,53.43
2022-09-09T13:44:28.442Z,53.07
2022-09-09T13:47:10.563Z,53.46
2022-09-09T13:49:42.260Z,53.30
2022-09-09T13:52:17.810Z,53.44
2022-09-09T13:54:52.049Z,53.22
2022-09-09T13:57:26.180Z,53.09
2022-09-09T14:00:06.025Z,52.78
2022-09-09T14:02:37.334Z,52.83
2022-09-09T14:05:09.499Z,52.80
2022-09-09T14:07:41.185Z,53.67
2022-09-09T14:10:13.191Z,53.68
2022-09-09T14:12:43.876Z,53.60
2022-09-09T14:15:16.319Z,53.87
2022-09-09T14:17:47.182Z,54.98
2022-09-09T14:20:18.773Z,55.31
2022-09-09T14:22:50.002Z,55.39
2022-09-09T14:25:20.729Z,55.16
2022-09-09T14:27:52.326Z,54.50
2022-09-09T14:30:23.107Z,54.57
2022-09-09T14:32:53.901Z,54.76
2022-09-09T14:35:24.836Z,55.23
2022-09-09T14:37:57.507Z,54.66
2022-09-09T14:40:28.289Z,54.18
2022-09-09T14:42:59.487Z,53.66
2022-09-09T14:45:30.362Z,53.64
2022-09-09T14:48:01.308Z,53.87
2022-09-09T14:50:31.974Z,54.15
2022-09-09T14:53:02.796Z,54.58
2022-09-09T14:55:33.535Z,55.14
2022-09-09T14:58:04.242Z,55.26
2022-09-09T15:00:35.084Z,54.65
2022-09-09T15:03:05.901Z,54.01
2022-09-09T15:05:38.115Z,53.57
2022-09-09T15:08:08.810Z,53.27
2022-09-09T15:10:40.117Z,53.67
2022-09-09T15:13:11.041Z,54.02
2022-09-09T15:15:42.662Z,53.96
2022-09-09T15:18:14.075Z,53.56
2022-09-09T15:20:48.608Z,53.82
2022-09-09T15:23:19.484Z,53.73
2022-09-09T15:25:57.796Z,53.55
2022-09-09T15:28:28.564Z,53.37
2022-09-09T15:31:00.829Z,53.21
2022-09-09T15:33:31.615Z,53.08
2022-09-09T15:36:02.552Z,53.22
2022-09-09T15:38:34.907Z,53.48
2022-09-09T15:41:05.766Z,53.39
2022-09-09T15:43:36.652Z,53.46
2022-09-09T15:46:28.327Z,53.68
2022-09-09T15:49:00.997Z,53.62
2022-09-09T15:51:42.333Z,54.14
2022-09-09T15:54:17.274Z,54.95
2022-09-09T15:56:49.771Z,55.42
2022-09-09T15:59:20.606Z,55.48
2022-09-09T16:01:52.284Z,56.08
2022-09-09T16:04:25.440Z,56.16
2022-09-09T16:06:59.346Z,56.16
2022-09-09T16:09:30.724Z,56.26
2022-09-09T16:12:03.495Z,56.49
2022-09-09T16:14:36.790Z,56.65
2022-09-09T16:17:08.279Z,57.08
2022-09-09T16:19:39.104Z,57.29
2022-09-09T16:22:09.793Z,57.48
2022-09-09T16:24:40.635Z,57.81
2022-09-09T16:27:12.443Z,58.04
2022-09-09T16:29:43.077Z,58.01
2022-09-09T16:32:13.758Z,57.96
2022-09-09T16:34:44.817Z,58.25
2022-09-09T16:37:15.467Z,58.24
2022-09-09T16:39:46.271Z,58.01
2022-09-09T16:42:17.972Z,57.95
2022-09-09T16:44:51.029Z,58.08
2022-09-09T16:47:22.626Z,57.91
2022-09-09T16:49:53.355Z,58.08
2022-09-09T16:52:24.006Z,57.86
2022-09-09T16:54:54.632Z,57.68
2022-09-09T16:57:25.373Z,57.52
2022-09-09T17:00:00.249Z,57.29
2022-09-09T17:02:31.137Z,57.31
2022-09-09T17:05:02.289Z,57.14
2022-09-09T17:07:35.751Z,57.08
2022-09-09T17:10:07.889Z,57.00
2022-09-09T17:12:42.367Z,56.71
2022-09-09T17:15:17.391Z,56.83
2022-09-09T17:17:55.527Z,57.19
2022-09-09T17:20:46.989Z,57.81
2022-09-09T17:23:20.631Z,58.05
2022-09-09T17:26:08.759Z,58.68
2022-09-09T17:28:43.132Z,59.05
2022-09-09T17:31:17.151Z,59.38
2022-09-09T17:33:49.974Z,59.58
2022-09-09T17:36:27.275Z,59.93
2022-09-09T17:39:04.323Z,60.08
2022-09-09T17:41:40.379Z,60.37
2022-09-09T17:44:13.437Z,60.61
2022-09-09T17:46:53.385Z,60.83
2022-09-09T17:49:24.249Z,61.04
2022-09-09T17:51:57.182Z,61.32
2022-09-09T17:54:29.236Z,61.53
2022-09-09T17:57:03.673Z,61.78
2022-09-09T17:59:44.254Z,61.68
2022-09-09T18:02:17.519Z,61.98
2022-09-09T18:04:54.069Z,61.76
2022-09-09T18:07:25.744Z,61.91
2022-09-09T18:09:56.547Z,62.19
2022-09-09T18:12:31.569Z,62.05
2022-09-09T18:15:04.207Z,62.11
2022-09-09T18:17:35.016Z,62.29
2022-09-09T18:20:07.061Z,62.31
2022-09-09T18:22:36.173Z,62.38
2022-09-09T18:25:07.977Z,62.24
2022-09-09T18:27:38.650Z,62.30
2022-09-09T18:30:11.962Z,62.46
2022-09-09T18:32:42.632Z,62.73
2022-09-09T18:35:13.651Z,62.65
2022-09-09T18:37:44.347Z,62.61
2022-09-09T18:40:15.222Z,62.81
2022-09-09T18:42:47.552Z,63.11
2022-09-09T18:45:19.243Z,63.11
2022-09-09T18:47:52.663Z,63.22
2022-09-09T18:50:23.303Z,63.14
2022-09-09T18:52:54.028Z,63.03
2022-09-09T18:55:24.759Z,63.25
2022-09-09T18:57:58.737Z,63.24
2022-09-09T19:00:32.912Z,63.30
2022-09-09T19:03:03.704Z,63.39
2022-09-09T19:05:35.813Z,63.47
2022-09-09T19:08:05.362Z,63.36
2022-09-09T19:10:38.441Z,63.56
2022-09-09T19:13:09.603Z,63.87
2022-09-09T19:15:41.035Z,63.89
2022-09-09T19:18:12.510Z,64.11
2022-09-09T19:20:43.283Z,64.34
2022-09-09T19:23:14.088Z,64.41
2022-09-09T19:25:45.371Z,64.55
2022-09-09T19:28:16.205Z,64.37
2022-09-09T19:30:47.875Z,64.52
2022-09-09T19:33:18.753Z,64.55
2022-09-09T19:35:57.794Z,64.53
2022-09-09T19:38:31.400Z,64.83
2022-09-09T19:41:08.228Z,65.04
2022-09-09T19:43:39.487Z,64.98
2022-09-09T19:46:12.670Z,65.12
2022-09-09T19:48:44.377Z,65.65
2022-09-09T19:51:17.226Z,65.97
2022-09-09T19:53:51.138Z,66.11
2022-09-09T19:56:24.959Z,66.03
2022-09-09T19:58:56.466Z,66.17
2022-09-09T20:01:29.231Z,66.11
2022-09-09T20:04:03.027Z,66.05
2022-09-09T20:06:36.590Z,66.09
2022-09-09T20:09:08.970Z,66.22
2022-09-09T20:11:39.796Z,66.38
2022-09-09T20:14:11.716Z,66.18
2022-09-09T20:16:43.253Z,66.29
2022-09-09T20:19:16.579Z,66.45
2022-09-09T20:21:49.532Z,66.18
2022-09-09T20:24:23.069Z,66.01
2022-09-09T20:26:54.288Z,66.04
2022-09-09T20:29:25.969Z,65.96
2022-09-09T20:31:57.377Z,66.00
2022-09-09T20:34:30.025Z,66.14
2022-09-09T20:37:02.795Z,66.42
2022-09-09T20:39:35.597Z,66.49
2022-09-09T20:42:08.132Z,66.88
2022-09-09T20:44:38.846Z,67.22
2022-09-09T20:47:09.829Z,67.45
2022-09-09T20:49:40.888Z,67.69
2022-09-09T20:52:12.820Z,67.77
2022-09-09T20:54:44.069Z,67.69
2022-09-09T20:57:20.226Z,67.68
2022-09-09T20:59:52.759Z,67.78
2022-09-09T21:02:23.609Z,67.95
2022-09-09T21:04:54.314Z,68.23
2022-09-09T21:07:25.266Z,68.48
2022-09-09T21:09:57.483Z,68.36
2022-09-09T21:12:26.850Z,68.37
2022-09-09T21:14:57.532Z,68.34
2022-09-09T21:17:28.937Z,68.30
2022-09-09T21:19:59.653Z,68.25
2022-09-09T21:22:32.078Z,68.17
2022-09-09T21:25:02.883Z,68.22
2022-09-09T21:27:34.738Z,68.25
2022-09-09T21:30:05.871Z,68.19
2022-09-09T21:32:36.702Z,68.13
2022-09-09T21:35:09.131Z,68.06
2022-09-09T21:37:39.932Z,68.01
2022-09-09T21:40:12.417Z,68.10
2022-09-09T21:42:44.205Z,68.05
2022-09-09T21:45:15.936Z,68.00
2022-09-09T21:47:49.586Z,68.06
2022-09-09T21:50:26.692Z,68.06
2022-09-09T21:52:59.088Z,68.12
2022-09-09T21:55:30.285Z,68.00
2022-09-09T21:58:00.960Z,68.06
2022-09-09T22:00:32.235Z,67.98
2022-09-09T22:03:03.387Z,67.97
2022-09-09T22:05:34.247Z,67.94
2022-09-09T22:08:05.542Z,68.00
2022-09-09T22:10:39.159Z,68.13
2022-09-09T22:13:09.776Z,67.98
2022-09-09T22:15:43.901Z,67.97
2022-09-09T22:18:16.107Z,68.05
2022-09-09T22:20:45.528Z,68.11
2022-09-09T22:23:16.603Z,68.00
2022-09-09T22:25:50.504Z,67.86
2022-09-09T22:28:22.290Z,67.87
2022-09-09T22:30:52.898Z,67.78
2022-09-09T22:33:24.282Z,67.58
2022-09-09T22:35:55.464Z,67.65
2022-09-09T22:38:26.979Z,67.57
2022-09-09T22:40:58.419Z,67.62
2022-09-09T22:43:29.635Z,67.59
2022-09-09T22:46:00.758Z,67.64
2022-09-09T22:48:35.156Z,67.80
2022-09-09T22:51:07.138Z,67.87
2022-09-09T22:53:38.220Z,67.90
2022-09-09T22:56:13.543Z,67.89
2022-09-09T22:58:45.939Z,67.79
2022-09-09T23:01:19.322Z,67.98
2022-09-09T23:03:50.759Z,67.88
2022-09-09T23:06:23.576Z,67.86
2022-09-09T23:08:56.826Z,67.78
2022-09-09T23:11:30.395Z,67.87
2022-09-09T23:14:02.292Z,67.89
2022-09-09T23:16:38.344Z,67.81
2022-09-09T23:19:11.502Z,67.84
2022-09-09T23:21:43.254Z,68.00
2022-09-09T23:24:16.328Z,67.97
2022-09-09T23:26:47.595Z,67.99
2022-09-09T23:29:19.247Z,68.10
2022-09-09T23:31:49.873Z,68.28
2022-09-09T23:34:20.640Z,68.42
2022-09-09T23:36:51.544Z,68.66
2022-09-09T23:39:23.164Z,68.74
2022-09-09T23:41:53.880Z,68.71
2022-09-09T23:44:24.756Z,68.69
2022-09-09T23:46:55.384Z,68.82
2022-09-09T23:49:26.159Z,68.71
2022-09-09T23:51:56.870Z,68.69
2022-09-09T23:54:27.578Z,68.98
2022-09-09T23:56:58.347Z,68.81
2022-09-09T23:59:29.441Z,68.91
